Time;durP1;ratioP1;P1;durP2;ratioP2;P2;SDS_P1;SDS_P2;PMS_P1;PMS_P2;Temp;Humidity;BMP_temperature;BMP_pressure;BME280_temperature;BME280_humidity;BME280_pressure;Samples;Min_cycle;Max_cycle;Signal;HPM_P1;HPM_P2
2021/08/09 00:01:15;;;;;;;9.10;4.67;;;;;;;14.30;90.75;100229.66;1733360;82;21569;-75
2021/08/09 00:03:42;;;;;;;10.63;5.00;;;;;;;14.27;90.71;100229.83;1725506;82;21038;-74
2021/08/09 00:06:09;;;;;;;9.30;4.47;;;;;;;14.25;90.84;100231.22;1704264;84;21078;-73
2021/08/09 00:08:38;;;;;;;9.00;5.08;;;;;;;14.25;90.77;100231.69;1704253;84;21052;-74
2021/08/09 00:11:06;;;;;;;6.08;4.75;;;;;;;14.24;90.72;100223.34;1704311;84;21152;-75
2021/08/09 00:13:35;;;;;;;11.55;4.85;;;;;;;14.26;90.91;100220.14;1703990;84;21078;-74
2021/08/09 00:16:03;;;;;;;11.53;5.00;;;;;;;14.27;90.76;100223.20;1704005;84;21057;-76
2021/08/09 00:18:32;;;;;;;6.72;4.35;;;;;;;14.26;90.96;100217.05;1704303;84;21057;-76
2021/08/09 00:21:00;;;;;;;8.18;4.55;;;;;;;14.23;91.17;100212.36;1704279;84;21038;-75
2021/08/09 00:23:31;;;;;;;7.67;4.90;;;;;;;14.19;91.44;100209.47;1704852;83;21057;-76
2021/08/09 00:25:58;;;;;;;6.53;3.70;;;;;;;14.17;91.74;100212.66;1705184;84;21089;-75
2021/08/09 00:28:26;;;;;;;7.45;4.47;;;;;;;14.17;91.68;100212.66;1705073;84;21070;-75
2021/08/09 00:30:56;;;;;;;8.30;5.20;;;;;;;14.19;91.70;100214.77;1706058;83;21064;-74
2021/08/09 00:33:24;;;;;;;6.95;4.60;;;;;;;14.19;91.94;100216.09;1709137;82;22193;-74
2021/08/09 00:35:51;;;;;;;8.85;5.05;;;;;;;14.20;91.95;100211.20;1709227;78;21098;-73
2021/08/09 00:38:20;;;;;;;7.65;5.15;;;;;;;14.21;92.14;100211.58;1708513;82;21038;-75
2021/08/09 00:40:49;;;;;;;7.95;4.85;;;;;;;14.20;91.85;100209.88;1704051;84;21125;-75
2021/08/09 00:43:18;;;;;;;8.23;4.72;;;;;;;14.16;92.01;100209.17;1703928;84;21035;-76
2021/08/09 00:45:45;;;;;;;9.73;4.92;;;;;;;14.13;92.24;100207.16;1704597;84;21042;-75
2021/08/09 00:48:12;;;;;;;13.35;5.40;;;;;;;14.09;92.31;100203.80;1703890;84;21552;-75
2021/08/09 00:50:40;;;;;;;9.23;4.72;;;;;;;14.05;92.56;100201.75;1709376;83;21112;-75
2021/08/09 00:53:08;;;;;;;6.78;4.53;;;;;;;14.01;92.73;100198.89;1717680;83;21137;-74
2021/08/09 00:55:37;;;;;;;11.03;4.97;;;;;;;14.02;92.66;100201.92;1717536;83;21089;-74
2021/08/09 00:58:06;;;;;;;12.03;5.20;;;;;;;14.01;92.74;100204.19;1717522;83;21029;-74
2021/08/09 01:00:34;;;;;;;7.75;4.55;;;;;;;14.02;92.66;100200.59;1717899;83;21973;-72
2021/08/09 01:03:02;;;;;;;10.90;5.05;;;;;;;14.04;93.01;100199.20;1717435;83;21025;-73
2021/08/09 01:05:28;;;;;;;7.35;4.55;;;;;;;14.05;93.32;100199.11;1691338;83;21061;-75
2021/08/09 01:08:20;;;;;;;7.10;5.15;;;;;;;14.07;92.96;100193.74;1717797;83;22088;-75
2021/08/09 01:11:15;;;;;;;13.80;4.95;;;;;;;14.06;92.96;100195.55;1717755;83;21110;-75
2021/08/09 01:14:38;;;;;;;6.17;4.47;;;;;;;14.05;93.14;100195.13;1716205;83;21167;-74
2021/08/09 01:17:06;;;;;;;10.25;4.95;;;;;;;14.01;93.29;100188.30;1717720;83;21067;-76
2021/08/09 01:20:11;;;;;;;7.90;4.80;;;;;;;13.97;93.40;100194.68;1691072;83;21450;-75
2021/08/09 01:23:11;;;;;;;10.55;4.33;;;;;;;13.94;93.52;100194.84;1717966;83;21112;-77
2021/08/09 01:25:58;;;;;;;8.98;4.53;;;;;;;13.90;93.84;100187.98;1717898;82;21619;-75
2021/08/09 01:28:31;;;;;;;13.25;5.12;;;;;;;13.87;94.09;100193.41;1717933;83;21480;-80
2021/08/09 01:30:59;;;;;;;9.03;5.05;;;;;;;13.86;94.23;100194.35;1717962;83;21116;-74
2021/08/09 01:33:29;;;;;;;9.58;4.20;;;;;;;13.85;94.49;100188.69;1718006;83;21014;-73
2021/08/09 01:35:57;;;;;;;7.85;4.42;;;;;;;13.81;94.55;100186.64;1717852;83;21049;-74
2021/08/09 01:38:25;;;;;;;9.03;4.70;;;;;;;13.79;94.73;100191.62;1717554;83;21092;-74
2021/08/09 01:40:56;;;;;;;9.90;4.30;;;;;;;13.76;94.96;100186.49;1717661;83;21152;-73
2021/08/09 01:43:25;;;;;;;10.23;4.65;;;;;;;13.76;95.04;100189.14;1717433;83;21064;-73
2021/08/09 01:45:55;;;;;;;9.23;4.30;;;;;;;13.75;95.17;100186.08;1714955;83;21065;-75
2021/08/09 01:48:23;;;;;;;7.95;4.47;;;;;;;13.74;95.38;100189.20;1718183;82;21089;-76
2021/08/09 01:50:51;;;;;;;10.75;4.75;;;;;;;13.74;95.46;100193.17;1730060;82;21004;-74
2021/08/09 01:53:18;;;;;;;5.83;4.17;;;;;;;13.74;95.63;100193.65;1718838;83;21710;-75
2021/08/09 01:55:46;;;;;;;16.10;4.90;;;;;;;13.76;95.64;100193.11;1704984;83;21079;-76
2021/08/09 01:58:14;;;;;;;7.75;4.90;;;;;;;13.77;95.69;100190.84;1703937;83;21053;-76
2021/08/09 02:00:42;;;;;;;9.58;5.25;;;;;;;13.76;95.45;100189.14;1704429;83;21745;-75
2021/08/09 02:03:08;;;;;;;12.90;4.70;;;;;;;13.73;95.49;100195.41;1704297;84;21069;-74
2021/08/09 02:05:36;;;;;;;9.60;4.97;;;;;;;13.72;95.58;100192.86;1704500;82;21489;-75
2021/08/09 02:08:12;;;;;;;10.50;5.40;;;;;;;13.71;95.65;100201.72;1703917;84;21561;-76
2021/08/09 02:10:39;;;;;;;5.70;3.77;;;;;;;13.71;95.96;100201.72;1703945;82;21050;-76
2021/08/09 02:13:40;;;;;;;9.53;4.62;;;;;;;13.73;95.94;100192.77;1704013;84;21092;-75
2021/08/09 02:16:12;;;;;;;13.55;4.78;;;;;;;13.73;96.00;100195.88;1704065;84;21528;-74
2021/08/09 02:18:47;;;;;;;5.37;3.35;;;;;;;13.71;96.02;100200.39;1703246;84;21528;-76
2021/08/09 02:21:16;;;;;;;9.68;4.80;;;;;;;13.71;96.31;100201.72;1704032;84;21038;-75
2021/08/09 02:23:56;;;;;;;11.22;5.15;;;;;;;13.72;96.44;100203.45;1703942;84;21242;-78
2021/08/09 02:26:34;;;;;;;7.75;4.45;;;;;;;13.71;96.35;100206.56;1701765;84;21105;-76
2021/08/09 02:29:09;;;;;;;6.10;4.67;;;;;;;13.67;96.29;100197.53;1703760;83;21045;-76
2021/08/09 02:31:38;;;;;;;7.50;4.78;;;;;;;13.64;96.49;100196.74;1703976;84;21014;-78
2021/08/09 02:34:06;;;;;;;9.43;4.95;;;;;;;13.61;96.69;100202.16;1703813;84;21062;-74
2021/08/09 02:36:33;;;;;;;5.42;4.78;;;;;;;13.58;96.80;100198.35;1684168;84;21084;-74
2021/08/09 02:39:00;;;;;;;7.47;4.33;;;;;;;13.57;96.85;100203.27;1704104;83;21022;-74
2021/08/09 02:41:27;;;;;;;7.85;4.55;;;;;;;13.58;97.09;100202.32;1704060;84;21140;-75
2021/08/09 02:43:54;;;;;;;6.78;4.90;;;;;;;13.60;97.11;100209.72;1707133;83;21144;-73
2021/08/09 02:46:21;;;;;;;7.12;4.25;;;;;;;13.60;97.09;100211.05;1703854;84;21050;-73
2021/08/09 02:48:49;;;;;;;5.40;4.72;;;;;;;13.62;97.21;100217.13;1704172;84;21123;-73
2021/08/09 02:51:18;;;;;;;8.73;4.60;;;;;;;13.63;97.29;100225.44;1708772;83;21082;-72
2021/08/09 02:53:47;;;;;;;8.58;4.33;;;;;;;13.64;97.28;100225.85;1717719;83;21078;-75
2021/08/09 02:56:14;;;;;;;6.85;4.60;;;;;;;13.67;97.62;100226.64;1717523;83;21127;-74
2021/08/09 02:58:42;;;;;;;5.15;3.02;;;;;;;13.61;97.65;100207.92;1717596;83;21162;-74
2021/08/09 03:01:08;;;;;;;9.25;4.75;;;;;;;13.70;97.82;100221.19;1718016;83;21077;-75
2021/08/09 03:03:36;;;;;;;6.35;4.58;;;;;;;13.71;97.92;100218.92;1717712;83;21096;-74
2021/08/09 03:06:03;;;;;;;7.08;3.85;;;;;;;13.75;97.78;100220.48;1718205;83;21009;-75
2021/08/09 03:08:30;;;;;;;7.83;4.85;;;;;;;13.76;97.75;100219.58;1691298;83;21087;-74
2021/08/09 03:10:58;;;;;;;7.70;4.60;;;;;;;13.78;97.81;100222.53;1724976;82;21033;-73
2021/08/09 03:13:25;;;;;;;6.37;4.17;;;;;;;13.81;98.06;100218.41;1722665;82;21093;-74
2021/08/09 03:15:53;;;;;;;12.43;4.78;;;;;;;13.86;97.84;100220.83;1735870;82;21035;-72
2021/08/09 03:18:21;;;;;;;6.03;3.70;;;;;;;13.91;98.07;100222.77;1729907;82;21563;-73
2021/08/09 03:20:49;;;;;;;7.10;4.72;;;;;;;14.01;98.14;100220.52;1721918;82;21532;-72
2021/08/09 03:23:17;;;;;;;7.15;4.75;;;;;;;14.13;98.04;100222.58;1733503;82;21132;-71
2021/08/09 03:25:45;;;;;;;8.30;4.37;;;;;;;14.28;98.02;100226.23;1733358;82;21069;-73
2021/08/09 03:28:13;;;;;;;6.80;4.62;;;;;;;14.53;97.82;100235.58;1732458;82;21057;-74
2021/08/09 03:30:40;;;;;;;13.78;4.85;;;;;;;14.96;96.97;100230.23;1747734;82;21077;-72
2021/08/09 03:33:07;;;;;;;14.55;4.08;;;;;;;15.51;95.07;100229.86;1729378;82;21159;-76
2021/08/09 03:35:35;;;;;;;14.00;4.20;;;;;;;16.05;92.67;100229.48;1733234;82;21066;-77
2021/08/09 03:38:04;;;;;;;10.23;4.10;;;;;;;16.63;90.29;100231.80;1732553;82;21579;-77
2021/08/09 03:40:30;;;;;;;10.32;3.85;;;;;;;17.15;87.62;100229.11;1747709;82;21085;-76
2021/08/09 03:42:58;;;;;;;8.50;4.00;;;;;;;17.61;85.50;100220.85;1717982;82;21081;-75
2021/08/09 03:45:25;;;;;;;7.87;4.33;;;;;;;18.10;82.80;100218.97;1718097;83;21971;-76
2021/08/09 03:47:53;;;;;;;6.60;3.80;;;;;;;18.55;80.32;100224.82;1743198;82;21023;-77
2021/08/09 03:50:20;;;;;;;5.40;3.58;;;;;;;18.96;77.84;100215.78;1736907;82;21033;-74
2021/08/09 03:52:50;;;;;;;7.90;3.52;;;;;;;19.37;75.92;100217.31;1717938;83;21065;-76
2021/08/09 03:55:17;;;;;;;6.63;3.87;;;;;;;19.75;72.67;100214.16;1718311;82;21077;-76
2021/08/09 03:57:44;;;;;;;5.72;3.95;;;;;;;20.08;71.51;100214.78;1718190;83;21242;-76
2021/08/09 04:00:12;;;;;;;5.55;3.50;;;;;;;20.44;70.03;100211.14;1718014;83;21227;-76
2021/08/09 04:02:43;;;;;;;6.22;3.62;;;;;;;20.76;68.99;100212.33;1717806;83;21116;-76
2021/08/09 04:05:13;;;;;;;6.05;4.08;;;;;;;21.14;67.65;100204.80;1716930;83;21112;-76
2021/08/09 04:07:40;;;;;;;5.40;3.85;;;;;;;21.53;65.88;100199.02;1717835;83;21095;-75
2021/08/09 04:10:09;;;;;;;4.67;3.67;;;;;;;21.81;63.65;100194.94;1717606;83;21176;-75
2021/08/09 04:12:36;;;;;;;5.20;3.50;;;;;;;21.94;63.48;100202.80;1717646;83;21556;-77
2021/08/09 04:15:07;;;;;;;5.95;3.30;;;;;;;22.24;62.47;100197.20;1718108;82;21136;-77
2021/08/09 04:17:35;;;;;;;4.62;3.10;;;;;;;22.62;61.47;100208.70;1722202;82;21105;-76
2021/08/09 04:20:06;;;;;;;5.90;3.60;;;;;;;23.03;59.93;100205.62;1678950;85;21573;-78
2021/08/09 04:22:34;;;;;;;5.87;3.27;;;;;;;23.36;58.82;100207.63;1714925;82;21154;-74
2021/08/09 04:25:02;;;;;;;6.00;3.33;;;;;;;23.69;57.70;100205.56;1729235;82;21606;-75
2021/08/09 04:27:31;;;;;;;6.47;3.85;;;;;;;24.00;56.84;100213.91;1725978;82;21053;-78
2021/08/09 04:29:59;;;;;;;7.70;3.30;;;;;;;24.31;55.55;100206.17;1717606;82;21101;-75
2021/08/09 04:32:26;;;;;;;7.78;3.40;;;;;;;24.57;55.00;100205.95;1727198;82;21018;-76
2021/08/09 04:34:54;;;;;;;11.85;3.22;;;;;;;24.95;54.14;100208.16;1719803;82;21534;-75
2021/08/09 04:37:24;;;;;;;6.08;3.50;;;;;;;25.32;52.79;100201.92;1734836;82;21067;-76
2021/08/09 04:39:52;;;;;;;9.13;3.40;;;;;;;25.67;51.83;100204.33;1728576;82;21128;-77
2021/08/09 04:42:19;;;;;;;6.00;3.00;;;;;;;25.95;50.71;100204.66;1727464;82;21069;-76
2021/08/09 04:44:46;;;;;;;7.17;3.02;;;;;;;26.21;49.83;100203.03;1726508;82;21023;-76
2021/08/09 04:47:12;;;;;;;8.68;3.42;;;;;;;26.54;48.97;100205.45;1726153;82;21393;-78
2021/08/09 04:49:42;;;;;;;6.28;3.42;;;;;;;26.87;47.99;100205.20;1730812;82;21052;-78
2021/08/09 04:52:09;;;;;;;8.88;3.27;;;;;;;27.15;47.33;100205.00;1717072;82;21109;-76
2021/08/09 04:54:36;;;;;;;6.80;3.05;;;;;;;27.40;46.56;100206.81;1705545;82;21053;-76
2021/08/09 04:57:04;;;;;;;4.25;3.05;;;;;;;27.67;46.45;100208.90;1707320;82;21078;-74
2021/08/09 04:59:31;;;;;;;8.90;3.05;;;;;;;28.00;45.82;100208.48;1700875;82;21109;-77
2021/08/09 05:01:58;;;;;;;9.90;2.77;;;;;;;28.31;45.07;100215.09;1717112;82;21564;-76
2021/08/09 05:04:25;;;;;;;8.35;3.35;;;;;;;28.59;44.49;100213.72;1702506;82;21170;-76
2021/08/09 05:06:54;;;;;;;8.50;2.87;;;;;;;28.74;43.89;100222.53;1702459;82;21058;-75
2021/08/09 05:09:23;;;;;;;16.62;2.90;;;;;;;29.47;41.64;100234.50;1690124;82;21124;-76
2021/08/09 05:11:50;;;;;;;14.98;3.47;;;;;;;29.47;41.64;100234.50;1713561;82;21093;-75
2021/08/09 05:14:19;;;;;;;5.78;2.90;;;;;;;29.86;41.47;100226.84;1709849;82;21065;-77
2021/08/09 05:16:47;;;;;;;11.88;2.35;;;;;;;30.07;41.23;100223.95;1710437;82;21486;-76
2021/08/09 05:19:14;;;;;;;10.80;2.62;;;;;;;30.40;39.88;100227.81;1711368;82;21275;-76
2021/08/09 05:21:41;;;;;;;8.30;2.47;;;;;;;30.76;38.97;100214.88;1718344;82;21073;-77
2021/08/09 05:24:09;;;;;;;9.08;2.58;;;;;;;31.04;38.43;100217.33;1714395;81;22207;-77
2021/08/09 05:26:36;;;;;;;10.10;2.50;;;;;;;31.36;38.06;100221.52;1704662;82;21087;-76
2021/08/09 05:29:03;;;;;;;9.18;1.95;;;;;;;31.67;37.35;100216.87;1712218;82;21101;-78
2021/08/09 05:31:32;;;;;;;7.37;2.10;;;;;;;31.92;36.48;100221.44;1714019;82;21514;-77
2021/08/09 05:33:59;;;;;;;4.33;1.80;;;;;;;32.19;35.71;100213.04;1713308;82;21097;-76
2021/08/09 05:36:27;;;;;;;6.95;2.20;;;;;;;32.34;34.94;100211.05;1695818;82;21217;-76
2021/08/09 05:38:53;;;;;;;5.05;1.92;;;;;;;32.52;34.33;100212.48;1725561;82;21062;-77
2021/08/09 05:41:21;;;;;;;6.75;1.85;;;;;;;32.65;34.41;100213.95;1711574;81;21101;-74
2021/08/09 05:43:49;;;;;;;5.12;1.85;;;;;;;32.89;33.88;100217.25;1716286;81;21054;-75
2021/08/09 05:46:17;;;;;;;10.95;2.40;;;;;;;32.67;32.85;100213.23;1731255;81;20955;-76
2021/08/09 05:48:44;;;;;;;4.90;1.92;;;;;;;32.35;33.98;100214.11;1728004;77;21108;-75
2021/08/09 05:51:12;;;;;;;4.50;1.90;;;;;;;32.28;33.40;100211.86;1725125;82;20997;-77
2021/08/09 05:53:40;;;;;;;4.37;1.95;;;;;;;32.25;34.10;100206.78;1712916;82;21100;-74
2021/08/09 05:56:08;;;;;;;7.45;1.82;;;;;;;32.20;33.50;100207.90;1714102;82;21105;-76
2021/08/09 05:58:50;;;;;;;5.22;1.80;;;;;;;32.06;33.75;100206.10;1722545;82;21075;-75
2021/08/09 06:01:17;;;;;;;7.03;1.62;;;;;;;32.03;34.48;100211.95;1658690;85;21513;-74
2021/08/09 06:03:45;;;;;;;4.75;1.70;;;;;;;32.13;34.14;100209.72;1647932;84;21053;-74
2021/08/09 06:06:18;;;;;;;4.35;1.70;;;;;;;32.44;33.65;100213.45;1679689;83;21120;-76
2021/08/09 06:08:50;;;;;;;4.28;1.70;;;;;;;32.73;33.57;100211.06;1715000;82;21038;-77
2021/08/09 06:11:18;;;;;;;10.98;1.87;;;;;;;32.86;33.08;100208.95;1712230;82;21740;-77
2021/08/09 06:13:45;;;;;;;4.50;1.55;;;;;;;32.93;32.77;100213.92;1692741;82;21538;-77
2021/08/09 06:16:14;;;;;;;3.47;1.67;;;;;;;32.88;32.90;100215.58;1719329;82;21023;-79
2021/08/09 06:18:43;;;;;;;4.87;1.80;;;;;;;33.16;32.30;100221.84;1709904;82;21062;-76
2021/08/09 06:21:12;;;;;;;2.42;1.57;;;;;;;33.45;32.02;100226.67;1715474;82;21633;-77
2021/08/09 06:23:41;;;;;;;7.03;1.67;;;;;;;33.57;31.81;100222.36;1723532;82;21047;-76
2021/08/09 06:26:10;;;;;;;2.60;1.50;;;;;;;33.82;30.88;100226.73;1722846;82;21714;-77
2021/08/09 06:28:37;;;;;;;3.55;1.60;;;;;;;33.61;30.94;100219.55;1721735;82;21085;-76
2021/08/09 06:31:05;;;;;;;4.22;1.55;;;;;;;33.30;31.56;100222.74;1721924;82;21105;-77
2021/08/09 06:33:33;;;;;;;5.53;1.85;;;;;;;33.14;31.99;100229.38;1723660;82;21526;-77
2021/08/09 06:36:00;;;;;;;5.30;1.42;;;;;;;33.04;31.97;100228.89;1727565;82;21113;-75
2021/08/09 06:38:28;;;;;;;7.40;1.90;;;;;;;33.10;31.94;100228.09;1718535;82;22100;-78
2021/08/09 06:40:56;;;;;;;7.75;1.67;;;;;;;33.30;31.93;100230.93;1731821;81;21047;-76
2021/08/09 06:43:24;;;;;;;2.83;1.50;;;;;;;33.47;31.33;100236.87;1664544;84;21072;-78
2021/08/09 06:45:54;;;;;;;;;;;;;;;33.58;30.77;100235.48;1659923;85;21459;-77
2021/08/09 06:48:25;;;;;;;6.67;1.82;;;;;;;33.87;30.44;100230.21;1670336;84;20188;-78
2021/08/09 06:50:55;;;;;;;5.15;1.77;;;;;;;34.33;30.12;100218.52;1704258;82;21799;-77
2021/08/09 06:53:21;;;;;;;5.60;2.15;;;;;;;34.70;29.50;100217.58;1730073;82;21141;-76
2021/08/09 06:55:48;;;;;;;4.22;2.35;;;;;;;34.84;29.59;100227.43;1732035;82;21365;-75
2021/08/09 06:58:17;;;;;;;6.22;2.15;;;;;;;34.98;28.50;100227.41;1701112;81;21065;-75
2021/08/09 07:00:45;;;;;;;6.15;1.80;;;;;;;35.16;28.16;100226.23;1734536;82;21630;-75
2021/08/09 07:03:13;;;;;;;5.70;2.22;;;;;;;35.26;27.05;100230.70;1728042;82;21148;-74
2021/08/09 07:05:41;;;;;;;7.75;2.27;;;;;;;35.04;26.64;100226.52;1724990;82;21069;-75
2021/08/09 07:08:09;;;;;;;3.72;2.08;;;;;;;34.66;27.97;100227.25;1731738;82;21094;-75
2021/08/09 07:10:36;;;;;;;13.45;2.12;;;;;;;34.37;28.17;100222.52;1663651;86;21099;-74
2021/08/09 07:13:06;;;;;;;7.08;2.20;;;;;;;34.37;28.56;100225.25;1732136;82;21546;-77
2021/08/09 07:15:34;;;;;;;10.05;2.40;;;;;;;34.39;29.19;100225.86;1735409;82;21974;-75
2021/08/09 07:18:02;;;;;;;7.92;2.40;;;;;;;34.59;29.43;100227.22;1724884;82;21107;-74
2021/08/09 07:20:29;;;;;;;24.70;3.27;;;;;;;34.75;29.30;100220.50;1731413;82;21064;-74
2021/08/09 07:22:57;;;;;;;2.35;1.55;;;;;;;35.02;28.63;100220.45;1725618;82;21050;-75
2021/08/09 07:25:25;;;;;;;4.78;2.10;;;;;;;35.35;28.06;100225.00;1723565;82;21039;-74
2021/08/09 07:27:52;;;;;;;4.50;1.50;;;;;;;35.67;27.57;100226.75;1712148;82;21880;-75
2021/08/09 07:30:19;;;;;;;2.05;1.47;;;;;;;35.95;26.95;100220.05;1724459;81;21574;-77
2021/08/09 07:33:10;;;;;;;5.72;2.00;;;;;;;36.05;26.37;100220.42;1720863;82;21080;-78
2021/08/09 07:35:45;;;;;;;6.37;2.42;;;;;;;36.04;26.32;100218.72;1722291;82;21733;-77
2021/08/09 07:38:13;;;;;;;5.33;1.90;;;;;;;35.91;25.14;100218.80;1724436;82;21099;-77
2021/08/09 07:40:40;;;;;;;2.30;1.50;;;;;;;35.42;26.24;100221.70;1715980;82;22139;-77
2021/08/09 07:43:07;;;;;;;13.05;2.08;;;;;;;35.34;26.67;100216.45;1720650;82;21706;-77
2021/08/09 07:45:34;;;;;;;7.08;1.90;;;;;;;35.40;26.17;100214.22;1726498;82;21123;-78
2021/08/09 07:48:03;;;;;;;3.98;1.90;;;;;;;35.29;26.03;100208.39;1725353;82;21031;-76
2021/08/09 07:50:31;;;;;;;3.33;1.77;;;;;;;35.06;25.54;100212.97;1723765;82;21072;-76
2021/08/09 07:52:58;;;;;;;23.60;2.58;;;;;;;34.86;25.45;100218.48;1719727;82;21529;-75
2021/08/09 07:55:25;;;;;;;11.20;2.37;;;;;;;34.71;26.86;100219.24;1724491;82;21058;-75
2021/08/09 07:57:54;;;;;;;2.27;1.60;;;;;;;34.53;28.30;100213.55;1727578;82;21042;-76
2021/08/09 08:00:21;;;;;;;7.22;2.08;;;;;;;34.69;27.94;100209.04;1720638;82;21069;-74
2021/08/09 08:02:52;;;;;;;5.05;1.80;;;;;;;34.84;26.03;100215.12;1711813;83;21053;-74
2021/08/09 08:05:19;;;;;;;7.80;1.77;;;;;;;34.70;26.13;100211.27;1719141;82;21537;-76
2021/08/09 08:07:47;;;;;;;3.55;1.75;;;;;;;34.74;26.83;100206.53;1729260;82;21540;-76
2021/08/09 08:10:13;;;;;;;14.55;2.52;;;;;;;34.94;26.42;100210.56;1727745;82;21105;-76
2021/08/09 08:12:43;;;;;;;4.65;3.35;;;;;;;35.10;26.69;100203.78;1728613;82;21073;-75
2021/08/09 08:15:12;;;;;;;4.83;1.87;;;;;;;34.92;26.30;100201.73;1724139;82;21054;-75
2021/08/09 08:17:39;;;;;;;5.12;2.17;;;;;;;34.73;26.56;100197.99;1727031;82;21647;-76
2021/08/09 08:20:10;;;;;;;7.12;2.00;;;;;;;34.61;27.72;100196.97;1675719;80;37529;-75
2021/08/09 08:22:38;;;;;;;8.35;2.10;;;;;;;34.65;26.18;100195.50;1676347;85;21641;-75
2021/08/09 08:25:07;;;;;;;2.50;1.52;;;;;;;34.67;26.73;100199.70;1677401;84;21119;-76
2021/08/09 08:27:35;;;;;;;5.60;2.07;;;;;;;34.93;26.58;100198.48;1677330;84;21125;-76
2021/08/09 08:30:04;;;;;;;1.77;1.30;;;;;;;35.33;26.39;100196.99;1676267;85;21674;-77
2021/08/09 08:32:32;;;;;;;7.95;2.15;;;;;;;35.53;26.38;100191.42;1677217;85;21127;-76
2021/08/09 08:35:00;;;;;;;9.23;2.25;;;;;;;35.85;25.99;100200.53;1676733;85;21620;-75
2021/08/09 08:37:28;;;;;;;3.62;1.72;;;;;;;36.18;25.49;100203.58;1657986;85;21118;-75
2021/08/09 08:39:55;;;;;;;7.05;1.80;;;;;;;36.41;24.97;100202.42;1677091;85;21135;-76
2021/08/09 08:42:22;;;;;;;5.83;2.00;;;;;;;36.57;24.12;100206.50;1677121;85;21115;-77
2021/08/09 08:44:50;;;;;;;4.75;1.95;;;;;;;36.56;23.82;100213.06;1676774;84;21095;-76
2021/08/09 08:47:19;;;;;;;2.25;1.87;;;;;;;36.47;23.95;100208.39;1677055;84;21084;-76
2021/08/09 08:49:48;;;;;;;3.08;1.82;;;;;;;36.33;24.65;100211.78;1676119;84;21098;-75
2021/08/09 08:52:15;;;;;;;2.52;2.00;;;;;;;36.55;23.65;100216.31;1679576;84;21566;-76
2021/08/09 08:54:43;;;;;;;7.17;2.00;;;;;;;36.51;23.58;100215.61;1675733;83;21558;-76
2021/08/09 08:57:21;;;;;;;2.25;1.70;;;;;;;36.37;24.20;100203.92;1675159;85;21139;-75
2021/08/09 08:59:48;;;;;;;3.85;1.80;;;;;;;36.19;23.96;100197.02;1676437;85;21192;-76
2021/08/09 09:02:33;;;;;;;2.05;1.45;;;;;;;36.13;24.74;100204.25;1674337;85;21127;-75
2021/08/09 09:05:18;;;;;;;2.70;1.50;;;;;;;36.37;24.47;100202.55;1676779;85;21601;-75
2021/08/09 09:07:52;;;;;;;2.98;1.80;;;;;;;36.55;23.74;100194.91;1677040;85;21150;-75
2021/08/09 09:10:27;;;;;;;3.70;1.90;;;;;;;36.44;24.35;100195.11;1676796;85;21076;-75
2021/08/09 09:13:15;;;;;;;3.17;1.60;;;;;;;36.47;24.56;100198.79;1673833;85;21078;-74
2021/08/09 09:15:57;;;;;;;2.70;1.87;;;;;;;36.65;23.94;100202.64;1676743;85;21080;-74
2021/08/09 09:18:26;;;;;;;4.67;1.82;;;;;;;36.77;23.71;100203.59;1674475;85;21083;-76
2021/08/09 09:20:54;;;;;;;3.72;2.17;;;;;;;36.89;23.69;100201.76;1676998;85;21562;-75
2021/08/09 09:23:23;;;;;;;4.20;2.40;;;;;;;37.05;23.65;100202.23;1673417;85;21085;-76
2021/08/09 09:25:51;;;;;;;3.90;1.70;;;;;;;37.04;21.34;100198.65;1676877;84;21078;-75
2021/08/09 09:28:33;;;;;;;5.12;1.70;;;;;;;36.79;22.37;100193.73;1677179;85;21155;-75
2021/08/09 09:31:03;;;;;;;7.05;1.70;;;;;;;36.63;22.29;100199.28;1676931;85;21089;-75
2021/08/09 09:33:30;;;;;;;4.47;2.00;;;;;;;36.49;22.94;100204.89;1676860;85;22105;-75
2021/08/09 09:36:04;;;;;;;4.62;1.80;;;;;;;36.52;24.08;100199.48;1676731;85;21072;-75
2021/08/09 09:38:44;;;;;;;3.10;1.72;;;;;;;36.58;24.68;100207.33;1679430;84;21093;-75
2021/08/09 09:41:10;;;;;;;1.98;1.45;;;;;;;36.73;24.52;100207.85;1682066;82;21138;-74
2021/08/09 09:43:40;;;;;;;3.10;1.75;;;;;;;36.69;24.65;100209.36;1686227;84;21108;-74
2021/08/09 09:46:07;;;;;;;4.50;2.10;;;;;;;36.77;24.21;100220.05;1672173;85;21250;-75
2021/08/09 09:48:38;;;;;;;2.17;1.90;;;;;;;36.89;24.27;100208.62;1676572;85;21524;-73
2021/08/09 09:51:14;;;;;;;3.87;1.75;;;;;;;36.88;24.22;100211.08;1676971;84;21348;-75
2021/08/09 09:53:42;;;;;;;6.08;1.92;;;;;;;36.91;24.38;100208.41;1682274;84;21149;-75
2021/08/09 09:56:09;;;;;;;2.10;1.77;;;;;;;36.98;23.86;100208.33;1694609;84;21078;-76
2021/08/09 09:58:37;;;;;;;2.42;1.67;;;;;;;37.15;23.18;100210.24;1694643;84;21537;-74
2021/08/09 10:01:06;;;;;;;2.62;1.90;;;;;;;37.27;22.82;100206.22;1694332;84;21612;-75
2021/08/09 10:03:36;;;;;;;3.45;1.90;;;;;;;37.36;22.51;100203.45;1708952;83;21121;-74
2021/08/09 10:08:43;;;;;;;3.20;1.60;;;;;;;37.40;22.10;100195.58;1794928;79;23420;-74
2021/08/09 10:11:10;;;;;;;2.17;1.62;;;;;;;37.38;22.29;100187.55;1677410;84;21551;-75
2021/08/09 10:13:38;;;;;;;2.52;1.75;;;;;;;37.42;22.34;100177.50;1690612;84;21514;-74
2021/08/09 10:16:08;;;;;;;4.45;1.90;;;;;;;37.10;21.82;100174.95;1694460;83;21437;-76
2021/08/09 10:18:37;;;;;;;;;;;;;;;36.83;22.66;100175.22;1695819;84;21572;-75
2021/08/09 10:21:05;;;;;;;7.70;1.87;;;;;;;36.81;23.31;100181.50;1691875;83;20451;-77
2021/08/09 10:23:47;;;;;;;2.77;2.20;;;;;;;37.04;23.42;100186.81;1718495;81;21400;-77
2021/08/09 10:26:34;;;;;;;3.40;1.90;;;;;;;37.24;23.66;100198.96;1675733;83;22751;-75
2021/08/09 10:29:08;;;;;;;2.90;2.12;;;;;;;37.34;23.25;100191.86;1700285;84;21033;-74
2021/08/09 10:31:45;;;;;;;3.72;2.00;;;;;;;37.10;22.70;100194.17;1710357;83;21577;-75
2021/08/09 10:34:40;;;;;;;3.58;1.70;;;;;;;37.03;23.05;100190.64;1691784;83;21081;-75
2021/08/09 10:37:14;;;;;;;3.55;1.92;;;;;;;36.96;23.15;100175.08;1678395;85;21536;-73
2021/08/09 10:39:59;;;;;;;2.45;2.00;;;;;;;37.11;23.31;100182.11;1680432;85;21134;-76
2021/08/09 10:42:43;;;;;;;4.53;2.00;;;;;;;37.15;23.57;100191.56;1677328;85;21034;-76
2021/08/09 10:45:13;;;;;;;3.47;1.92;;;;;;;37.30;22.28;100186.52;1652646;85;21073;-75
2021/08/09 10:47:53;;;;;;;7.80;2.22;;;;;;;37.21;23.36;100190.66;1682102;85;21108;-75
2021/08/09 10:50:41;;;;;;;2.47;1.92;;;;;;;37.31;23.23;100179.94;1681290;85;21092;-77
2021/08/09 10:53:31;;;;;;;6.25;2.15;;;;;;;37.05;23.85;100178.36;1695171;84;21845;-77
2021/08/09 10:55:58;;;;;;;;;;;;;;;37.10;23.47;100174.95;1666834;85;21089;-74
2021/08/09 10:58:52;;;;;;;2.75;1.70;;;;;;;37.12;22.69;100176.94;1676369;85;20510;-77
2021/08/09 11:01:22;;;;;;;2.83;1.80;;;;;;;37.00;23.10;100178.22;1681276;85;21132;-77
2021/08/09 11:04:07;;;;;;;2.58;1.70;;;;;;;36.82;22.86;100179.05;1680315;85;21128;-77
2021/08/09 11:06:53;;;;;;;6.40;1.98;;;;;;;36.74;22.48;100161.50;1679559;84;21579;-78
2021/08/09 11:09:37;;;;;;;5.17;2.00;;;;;;;36.75;23.05;100152.22;1708340;83;21634;-78
2021/08/09 11:12:24;;;;;;;6.70;2.30;;;;;;;36.83;22.99;100153.27;1711366;82;21057;-78
2021/08/09 11:15:11;;;;;;;2.72;1.82;;;;;;;36.95;22.99;100158.31;1711610;82;21604;-76
2021/08/09 11:17:44;;;;;;;4.50;1.90;;;;;;;37.02;23.13;100157.38;1713634;82;21101;-75
2021/08/09 11:20:29;;;;;;;2.83;1.85;;;;;;;37.26;22.95;100159.22;1700679;83;21339;-76
2021/08/09 11:23:11;;;;;;;3.83;1.75;;;;;;;37.43;22.29;100151.70;1708965;83;20999;-74
2021/08/09 11:25:47;;;;;;;2.92;1.90;;;;;;;37.49;22.78;100143.91;1705939;83;21118;-75
2021/08/09 11:28:23;;;;;;;4.90;1.80;;;;;;;37.28;21.94;100140.60;1713076;81;21046;-73
2021/08/09 11:30:58;;;;;;;1.92;1.70;;;;;;;36.94;22.90;100138.78;1714197;80;21081;-75
2021/08/09 11:33:36;;;;;;;6.40;2.45;;;;;;;36.80;22.60;100134.53;1714487;82;21071;-76
2021/08/09 11:36:12;;;;;;;3.25;1.90;;;;;;;36.89;23.23;100135.90;1711966;83;21279;-76
2021/08/09 11:38:48;;;;;;;4.15;1.87;;;;;;;36.63;21.87;100128.83;1710840;83;21627;-75
2021/08/09 11:41:22;;;;;;;4.72;2.15;;;;;;;36.46;23.21;100125.80;1709139;82;21061;-75
2021/08/09 11:44:05;;;;;;;4.70;1.70;;;;;;;36.53;23.11;100116.13;1706714;84;21078;-74